Wayne Heights, Pennsylvania
Current Conditions -  °F | °C
As of 4:53 PM on Tuesday 21 Oct 2014 (Local Time) from KRYT Reporting Station
Overcast Overcast  
Wind Chill: 56°   Ceiling: 8000
Heat Index: 56°   Visibility: 10mi
Dew Point: 48°   Wind: 5mph
Humidity: 75%   Direction: NA
Pressure: 29.83"   Gusts: NA
Location:  39.7777°N, 77.5693°W
Report Text: KRYT 212053Z AUTO VRB04KT 10SM BKN080 OVC100 13/09 A2983 RMK AO2 SLP101 T01330089 53005 $
Loading
Personal Weather Stations






























Interactive Weather Map
Tropical Storm Tracking
New forecast layout! Learn more

10-Day Weather Forecast

Advertisements
Track Severe Weather on mobile